Time;durP1;ratioP1;P1;durP2;ratioP2;P2;SDS_P1;SDS_P2;PMS_P1;PMS_P2;Temp;Humidity;BMP_temperature;BMP_pressure;BME280_temperature;BME280_humidity;BME280_pressure;Samples;Min_cycle;Max_cycle;Signal;HPM_P1;HPM_P2
2023/05/26 00:01:46;;;;;;;24.55;4.03;;;;;;;;;;5004050;28;20075;-73
2023/05/26 00:04:16;;;;;;;25.27;3.10;;;5.00;99.90;;;;;;5010922;28;20194;-74
2023/05/26 00:06:46;;;;;;;28.42;4.80;;;4.90;99.90;;;;;;4994855;28;20045;-73
2023/05/26 00:09:14;;;;;;;27.27;4.63;;;4.90;99.90;;;;;;4988874;28;20794;-77
2023/05/26 00:11:41;;;;;;;26.33;5.07;;;;;;;;;;5008450;28;20088;-71
2023/05/26 00:14:07;;;;;;;19.25;3.45;;;;;;;;;;5007839;28;20548;-75
2023/05/26 00:16:33;;;;;;;25.80;5.32;;;;;;;;;;5006335;28;20052;-77
2023/05/26 00:19:00;;;;;;;23.33;4.20;;;;;;;;;;5000794;28;20244;-79
2023/05/26 00:21:26;;;;;;;25.35;3.83;;;;;;;;;;5012418;28;20047;-75
2023/05/26 00:23:53;;;;;;;24.17;3.40;;;;;;;;;;5008680;28;20041;-71
2023/05/26 00:26:19;;;;;;;18.42;4.13;;;;;;;;;;5001702;28;20045;-71
2023/05/26 00:28:45;;;;;;;20.02;4.50;;;;;;;;;;4996352;28;20916;-78
2023/05/26 00:31:11;;;;;;;22.55;4.45;;;;;;;;;;5011736;28;20057;-76
2023/05/26 00:33:37;;;;;;;21.77;2.67;;;;;;;;;;5002897;28;20054;-79
2023/05/26 00:36:03;;;;;;;20.80;4.88;;;;;;;;;;4994944;28;20084;-78
2023/05/26 00:38:29;;;;;;;26.95;5.38;;;;;;;;;;5011315;28;20061;-74
2023/05/26 00:40:55;;;;;;;21.75;4.13;;;;;;;;;;5010720;28;20541;-71
2023/05/26 00:43:21;;;;;;;29.88;5.18;;;;;;;;;;5012123;28;20057;-71
2023/05/26 00:45:47;;;;;;;24.35;4.22;;;;;;;;;;5010136;28;20144;-69
2023/05/26 00:48:14;;;;;;;24.00;3.13;;;;;;;;;;4995969;28;20075;-70
2023/05/26 00:50:40;;;;;;;28.75;3.85;;;;;;;;;;5009186;28;20049;-71
2023/05/26 00:53:07;;;;;;;26.67;5.55;;;;;;;;;;5008498;28;20778;-78
2023/05/26 00:55:33;;;;;;;25.00;3.38;;;;;;;;;;5001696;28;20056;-75
2023/05/26 00:57:59;;;;;;;24.90;4.60;;;;;;;;;;4992039;28;20045;-74
2023/05/26 01:00:26;;;;;;;24.67;4.18;;;3.60;99.90;;;;;;5007385;28;20052;-72
2023/05/26 01:02:57;;;;;;;18.73;3.72;;;;;;;;;;5006951;28;20127;-76
2023/05/26 01:05:23;;;;;;;25.55;4.05;;;;;;;;;;5006144;28;20037;-76
2023/05/26 01:07:49;;;;;;;25.02;5.63;;;;;;;;;;5015237;28;20045;-75
2023/05/26 01:10:16;;;;;;;20.48;3.35;;;;;;;;;;5008490;28;20085;-74
2023/05/26 01:12:50;;;;;;;25.88;3.90;;;;;;;;;;5011916;28;20085;-74
2023/05/26 01:15:19;;;;;;;20.85;3.63;;;;;;;;;;5007147;28;20103;-71
2023/05/26 01:17:50;;;;;;;19.20;3.22;;;;;;;;;;5011385;28;20080;-77
2023/05/26 01:20:27;;;;;;;18.63;2.88;;;;;;;;;;5007801;28;20754;-67
2023/05/26 01:23:12;;;;;;;29.98;5.60;;;;;;;;;;5003278;28;20053;-71
2023/05/26 01:25:56;;;;;;;24.10;4.07;;;4.30;99.90;;;;;;4994462;28;20051;-70
2023/05/26 01:28:26;;;;;;;23.17;4.45;;;;;;;;;;4990135;28;20079;-72
2023/05/26 01:30:53;;;;;;;22.33;5.05;;;4.30;99.90;;;;;;5004270;28;20061;-73
2023/05/26 01:33:19;;;;;;;21.83;2.95;;;;;;;;;;5002773;28;20053;-76
2023/05/26 01:35:45;;;;;;;15.57;3.30;;;;;;;;;;5014089;28;20069;-74
2023/05/26 01:38:12;;;;;;;19.60;3.10;;;4.10;99.90;;;;;;5007773;28;20062;-73
2023/05/26 01:40:40;;;;;;;19.67;4.55;;;4.00;99.90;;;;;;5014394;28;20053;-69
2023/05/26 01:43:30;;;;;;;23.88;4.43;;;4.00;99.90;;;;;;5014800;28;20803;-70
2023/05/26 01:46:05;;;;;;;25.73;4.88;;;4.00;99.90;;;;;;5000907;28;20085;-73
2023/05/26 01:48:31;;;;;;;18.45;2.97;;;;;;;;;;4982983;28;20783;-75
2023/05/26 01:51:00;;;;;;;17.50;3.38;;;3.90;99.90;;;;;;5006825;28;20050;-69
2023/05/26 01:53:30;;;;;;;19.90;3.60;;;3.90;99.90;;;;;;4995413;28;20049;-72
2023/05/26 01:55:57;;;;;;;28.83;5.15;;;3.80;99.90;;;;;;4992880;28;20554;-78
2023/05/26 01:58:24;;;;;;;23.88;3.53;;;;;;;;;;5002182;28;20072;-72
2023/05/26 02:00:52;;;;;;;20.63;3.17;;;;;;;;;;5014627;28;20053;-75
2023/05/26 02:03:18;;;;;;;16.75;4.05;;;;;;;;;;5001887;28;20495;-74
2023/05/26 02:05:45;;;;;;;23.42;3.95;;;;;;;;;;5007060;28;20181;-73
2023/05/26 02:08:11;;;;;;;16.20;3.40;;;;;;;;;;5013899;28;20045;-76
2023/05/26 02:10:37;;;;;;;18.40;3.00;;;;;;;;;;5001252;28;20184;-76
2023/05/26 02:13:04;;;;;;;19.80;2.90;;;;;;;;;;5012771;28;20053;-72
2023/05/26 02:15:30;;;;;;;24.75;4.60;;;;;;;;;;4985957;28;20057;-77
2023/05/26 02:17:57;;;;;;;16.80;3.10;;;;;;;;;;5013878;28;20076;-74
2023/05/26 02:20:27;;;;;;;20.23;3.83;;;;;;;;;;4997097;28;20092;-70
2023/05/26 02:22:53;;;;;;;23.63;3.50;;;;;;;;;;5001332;28;20046;-70
2023/05/26 02:25:19;;;;;;;21.00;4.28;;;;;;;;;;5008173;28;20114;-69
2023/05/26 02:27:46;;;;;;;22.15;2.63;;;;;;;;;;4994352;28;20064;-69
2023/05/26 02:30:12;;;;;;;28.67;4.18;;;;;;;;;;5009739;28;20049;-72
2023/05/26 02:32:39;;;;;;;25.33;3.85;;;;;;;;;;5011732;28;20904;-78
2023/05/26 02:35:05;;;;;;;19.92;3.47;;;;;;;;;;5000348;28;20045;-74
2023/05/26 02:37:31;;;;;;;22.92;5.13;;;;;;;;;;5008250;28;20069;-74
2023/05/26 02:39:58;;;;;;;25.88;3.63;;;;;;;;;;4997515;28;20053;-71
2023/05/26 02:42:24;;;;;;;21.52;3.20;;;;;;;;;;5013607;28;20316;-75
2023/05/26 02:44:50;;;;;;;21.48;4.03;;;;;;;;;;5012988;28;20057;-73
2023/05/26 02:47:16;;;;;;;20.67;3.17;;;;;;;;;;5003366;28;20486;-75
2023/05/26 02:49:42;;;;;;;21.90;2.65;;;;;;;;;;5013085;28;20084;-72
2023/05/26 02:52:09;;;;;;;24.25;3.95;;;;;;;;;;4985286;28;20050;-70
2023/05/26 02:54:35;;;;;;;22.33;4.20;;;;;;;;;;5007891;28;20568;-69
2023/05/26 02:57:01;;;;;;;25.25;3.28;;;;;;;;;;5000169;28;20053;-73
2023/05/26 02:59:27;;;;;;;21.42;3.58;;;;;;;;;;4992349;28;20659;-73
2023/05/26 03:01:53;;;;;;;17.80;3.15;;;;;;;;;;5006547;28;20056;-71
2023/05/26 03:04:20;;;;;;;19.92;3.67;;;;;;;;;;5007839;28;20049;-71
2023/05/26 03:06:46;;;;;;;19.55;3.47;;;;;;;;;;5013146;28;20675;-70
2023/05/26 03:09:12;;;;;;;15.50;2.60;;;;;;;;;;4997973;28;20052;-75
2023/05/26 03:11:38;;;;;;;17.45;4.97;;;;;;;;;;5008159;28;20732;-74
2023/05/26 03:14:05;;;;;;;24.67;4.72;;;;;;;;;;5012065;28;20177;-75
2023/05/26 03:16:31;;;;;;;22.83;3.88;;;;;;;;;;4997396;28;20060;-74
2023/05/26 03:18:57;;;;;;;32.08;5.00;;;;;;;;;;4985186;28;20068;-71
2023/05/26 03:21:24;;;;;;;20.52;3.15;;;;;;;;;;5010434;28;20173;-72
2023/05/26 03:23:49;;;;;;;21.65;3.85;;;3.10;99.90;;;;;;5004734;28;20050;-71
2023/05/26 03:26:16;;;;;;;26.08;3.58;;;;;;;;;;5004697;28;20111;-72
2023/05/26 03:28:42;;;;;;;16.48;3.40;;;;;;;;;;4992112;28;20053;-71
2023/05/26 03:31:08;;;;;;;17.85;3.42;;;;;;;;;;4997062;28;20054;-70
2023/05/26 03:33:34;;;;;;;17.63;4.03;;;;;;;;;;4996032;28;20128;-75
2023/05/26 03:36:00;;;;;;;18.75;3.67;;;;;;;;;;5012464;28;20115;-76
2023/05/26 03:38:27;;;;;;;15.15;2.75;;;;;;;;;;5013096;28;20057;-73
2023/05/26 03:40:53;;;;;;;12.32;2.53;;;;;;;;;;5002508;28;20053;-75
2023/05/26 03:43:19;;;;;;;10.27;2.35;;;;;;;;;;5012289;28;20823;-74
2023/05/26 03:45:45;;;;;;;13.52;3.00;;;;;;;;;;4990778;28;20514;-71
2023/05/26 03:48:13;;;;;;;22.40;4.03;;;5.90;99.90;;;;;;4981412;28;20583;-73
2023/05/26 03:50:41;;;;;;;15.70;3.00;;;;;;;;;;4993105;28;20570;-73
2023/05/26 03:53:08;;;;;;;20.60;3.17;;;;;;;;;;5009392;28;20049;-72
2023/05/26 03:55:34;;;;;;;20.48;2.85;;;;;;;;;;5009799;28;20049;-73
2023/05/26 03:58:00;;;;;;;15.25;3.80;;;;;;;;;;4987363;28;20046;-73
2023/05/26 04:00:30;;;;;;;13.52;2.45;;;;;;;;;;5003942;28;20556;-71
2023/05/26 04:02:57;;;;;;;12.98;3.75;;;;;;;;;;4992757;28;20053;-70
2023/05/26 04:05:23;;;;;;;19.30;4.03;;;;;;;;;;4989808;28;20268;-75
2023/05/26 04:07:49;;;;;;;19.08;2.88;;;;;;;;;;5012684;28;20049;-76
2023/05/26 04:10:15;;;;;;;11.98;1.92;;;;;;;;;;4990167;28;20055;-71
2023/05/26 04:12:42;;;;;;;16.38;3.60;;;;;;;;;;5011478;28;20042;-71
2023/05/26 04:15:11;;;;;;;24.08;5.20;;;4.00;99.90;;;;;;5012086;28;20076;-72
2023/05/26 04:17:38;;;;;;;14.43;3.55;;;;;;;;;;4995437;28;20188;-71
2023/05/26 04:20:10;;;;;;;18.83;5.35;;;4.40;99.90;;;;;;5001094;28;20368;-77
2023/05/26 04:22:36;;;;;;;21.95;3.80;;;;;;;;;;5009876;28;20060;-75
2023/05/26 04:25:07;;;;;;;14.27;3.70;;;5.10;99.90;;;;;;4992808;28;20060;-71
2023/05/26 04:27:35;;;;;;;15.65;3.72;;;;;;;;;;4981912;28;20169;-71
2023/05/26 04:30:02;;;;;;;17.75;3.00;;;5.80;99.90;;;;;;5001939;28;20522;-75
2023/05/26 04:32:29;;;;;;;22.20;4.07;;;;;;;;;;4987484;28;20514;-74
2023/05/26 04:34:56;;;;;;;18.98;2.95;;;;;;;;;;4993797;28;20053;-76
2023/05/26 04:37:22;;;;;;;20.40;3.92;;;;;;;;;;5009058;28;20066;-75
2023/05/26 04:39:48;;;;;;;12.82;3.20;;;;;;;;;;4996168;28;20149;-71
2023/05/26 04:42:15;;;;;;;26.25;5.38;;;;;;;;;;5011246;28;20045;-72
2023/05/26 04:44:43;;;;;;;16.63;2.67;;;;;;;;;;5004153;28;20073;-73
2023/05/26 04:47:09;;;;;;;18.83;2.72;;;;;;;;;;5014061;28;20326;-76
2023/05/26 04:49:38;;;;;;;26.77;5.05;;;;;;;;;;4988212;28;20507;-74
2023/05/26 04:52:05;;;;;;;14.30;3.28;;;;;;;;;;4994152;28;20581;-73
2023/05/26 04:54:34;;;;;;;20.00;4.32;;;;;;;;;;4994078;28;20073;-72
2023/05/26 04:57:00;;;;;;;17.88;3.50;;;;;;;;;;5004076;28;20072;-74
2023/05/26 04:59:27;;;;;;;18.88;4.47;;;;;;;;;;4998937;28;20054;-73
2023/05/26 05:01:53;;;;;;;22.58;3.70;;;;;;;;;;5010432;28;20267;-75
2023/05/26 05:04:20;;;;;;;24.23;3.40;;;8.10;99.90;;;;;;4989933;28;20542;-72
2023/05/26 05:06:46;;;;;;;18.98;5.35;;;;;;;;;;5009471;28;20521;-76
2023/05/26 05:09:12;;;;;;;15.25;3.13;;;;;;;;;;4985680;28;20135;-76
2023/05/26 05:11:38;;;;;;;24.58;4.53;;;;;;;;;;5003741;28;20547;-74
2023/05/26 05:14:05;;;;;;;24.92;5.03;;;;;;;;;;4995238;28;20053;-73
2023/05/26 05:16:31;;;;;;;25.27;6.68;;;;;;;;;;5001044;28;20070;-71
2023/05/26 05:18:57;;;;;;;26.58;5.28;;;;;;;;;;5000239;28;20529;-76
2023/05/26 05:21:23;;;;;;;20.92;4.00;;;;;;;;;;5007336;28;20049;-76
2023/05/26 05:23:49;;;;;;;22.67;3.50;;;;;;;;;;5009978;28;20052;-76
2023/05/26 05:26:15;;;;;;;29.02;6.78;;;;;;;;;;5009394;28;20052;-73
2023/05/26 05:28:42;;;;;;;24.35;4.38;;;;;;;;;;5005819;28;20059;-70
2023/05/26 05:31:08;;;;;;;21.52;3.53;;;;;;;;;;4997478;28;20053;-71
2023/05/26 05:33:38;;;;;;;24.85;4.53;;;11.60;99.90;;;;;;5003898;28;20041;-70
2023/05/26 05:36:04;;;;;;;19.80;5.30;;;;;;;;;;5006326;28;20208;-74
2023/05/26 05:38:30;;;;;;;31.52;4.25;;;;;;;;;;5002539;28;20092;-73
2023/05/26 05:40:56;;;;;;;25.13;3.85;;;;;;;;;;5014152;28;20376;-73
2023/05/26 05:43:23;;;;;;;23.45;3.85;;;;;;;;;;5011558;28;20049;-71
2023/05/26 05:45:49;;;;;;;19.08;3.75;;;;;;;;;;4998527;28;20580;-70
2023/05/26 05:48:15;;;;;;;22.95;3.90;;;;;;;;;;5007698;28;20096;-75
2023/05/26 05:50:41;;;;;;;18.75;3.20;;;;;;;;;;5011259;28;20061;-74
2023/05/26 05:53:07;;;;;;;20.05;4.50;;;;;;;;;;5015669;28;20183;-76
2023/05/26 05:55:33;;;;;;;21.80;4.03;;;;;;;;;;5005380;28;20368;-76
2023/05/26 05:57:59;;;;;;;16.33;3.33;;;;;;;;;;5006092;28;20046;-73
2023/05/26 06:00:26;;;;;;;26.30;4.05;;;;;;;;;;4995554;28;20156;-74
2023/05/26 06:02:52;;;;;;;14.20;2.65;;;;;;;;;;5006900;28;20073;-73
2023/05/26 06:05:18;;;;;;;16.40;3.58;;;;;;;;;;5010971;28;20057;-69
2023/05/26 06:07:44;;;;;;;15.57;2.78;;;;;;;;;;4994686;28;20107;-73
2023/05/26 06:10:11;;;;;;;17.73;3.42;;;;;;;;;;4996718;28;20137;-70
2023/05/26 06:12:37;;;;;;;15.20;2.92;;;;;;;;;;4986997;28;20540;-74
2023/05/26 06:15:03;;;;;;;16.25;2.97;;;;;;;;;;5004971;28;20089;-74
2023/05/26 06:17:29;;;;;;;21.42;2.90;;;;;;;;;;4993517;28;20096;-76
2023/05/26 06:19:55;;;;;;;20.35;3.38;;;;;;;;;;5013819;28;20439;-72
2023/05/26 06:22:21;;;;;;;16.38;3.22;;;;;;;;;;4995484;28;20557;-74
2023/05/26 06:24:48;;;;;;;18.60;2.97;;;;;;;;;;4983548;28;20832;-78
2023/05/26 06:27:15;;;;;;;15.27;3.25;;;;;;;;;;4989552;28;20083;-74
2023/05/26 06:29:41;;;;;;;14.95;3.58;;;;;;;;;;5004353;28;20446;-73
2023/05/26 06:32:07;;;;;;;16.15;3.00;;;;;;;;;;5008981;28;20060;-77
2023/05/26 06:34:33;;;;;;;20.30;3.42;;;;;;;;;;4981133;28;20699;-79
2023/05/26 06:36:59;;;;;;;11.68;2.63;;;;;;;;;;4987747;28;20049;-80
2023/05/26 06:39:26;;;;;;;17.33;3.17;;;;;;;;;;5007817;28;20065;-76
2023/05/26 06:41:52;;;;;;;11.80;2.78;;;;;;;;;;5011465;28;20119;-69
2023/05/26 06:44:17;;;;;;;16.25;3.47;;;26.10;55.20;;;;;;5004268;28;20594;-72
2023/05/26 06:46:44;;;;;;;12.70;2.70;;;;;;;;;;5007700;28;20058;-72
2023/05/26 06:49:10;;;;;;;10.40;2.47;;;;;;;;;;4990690;28;20740;-69
2023/05/26 06:51:36;;;;;;;17.80;3.50;;;;;;;;;;5005482;28;20474;-79
2023/05/26 06:54:03;;;;;;;15.05;2.75;;;;;;;;;;5003857;28;20104;-69
2023/05/26 06:56:29;;;;;;;17.65;3.17;;;;;;;;;;5003862;28;20511;-69
2023/05/26 06:58:55;;;;;;;18.15;2.83;;;;;;;;;;4995552;28;20717;-76
2023/05/26 07:01:21;;;;;;;15.48;2.78;;;;;;;;;;5003802;28;20163;-76
2023/05/26 07:03:47;;;;;;;11.88;2.70;;;;;;;;;;4988616;28;20539;-80
2023/05/26 07:06:13;;;;;;;16.27;2.88;;;;;;;;;;4997703;28;20438;-77
2023/05/26 07:08:40;;;;;;;8.13;1.85;;;;;;;;;;4996102;28;20085;-72
2023/05/26 07:11:07;;;;;;;15.95;2.88;;;;;;;;;;4998624;28;20053;-80
2023/05/26 07:13:33;;;;;;;15.05;3.70;;;;;;;;;;4979848;28;20125;-73
2023/05/26 07:15:59;;;;;;;14.15;2.88;;;;;;;;;;5002953;28;20061;-76
2023/05/26 07:18:25;;;;;;;14.98;2.88;;;;;;;;;;4993264;28;20468;-75
2023/05/26 07:20:51;;;;;;;14.80;2.10;;;;;;;;;;4988688;28;20054;-74
2023/05/26 07:23:18;;;;;;;11.82;2.55;;;;;;;;;;5000969;28;20491;-73
2023/05/26 07:25:44;;;;;;;15.30;2.47;;;;;;;;;;4989925;28;20733;-75
2023/05/26 07:28:10;;;;;;;13.20;2.78;;;;;;;;;;4995962;28;20046;-69
2023/05/26 07:30:36;;;;;;;14.15;2.08;;;;;;;;;;5007513;28;20049;-71
2023/05/26 07:33:02;;;;;;;17.08;2.97;;;;;;;;;;5002672;28;20129;-75
2023/05/26 07:35:28;;;;;;;12.93;2.85;;;;;;;;;;4994831;28;20053;-75
2023/05/26 07:37:56;;;;;;;10.65;2.65;;;30.70;44.50;;;;;;4983477;28;20557;-72
2023/05/26 07:40:22;;;;;;;9.15;2.08;;;;;;;;;;4994024;28;20056;-73
2023/05/26 07:42:48;;;;;;;12.15;2.47;;;;;;;;;;4987420;28;20502;-73
2023/05/26 07:45:15;;;;;;;11.10;3.17;;;31.60;44.30;;;;;;4989659;28;20072;-74
2023/05/26 07:47:40;;;;;;;10.60;2.45;;;31.60;44.70;;;;;;5000297;28;20041;-71
2023/05/26 07:50:07;;;;;;;8.82;2.13;;;;;;;;;;5007824;28;20095;-72
2023/05/26 07:52:32;;;;;;;12.18;2.67;;;32.40;42.60;;;;;;5012840;28;20545;-77
2023/05/26 07:54:59;;;;;;;13.93;2.50;;;;;;;;;;5005898;28;20037;-70
2023/05/26 07:57:25;;;;;;;13.60;2.75;;;;;;;;;;5001296;28;20256;-72
2023/05/26 07:59:51;;;;;;;8.30;3.05;;;;;;;;;;5001582;28;20057;-77
2023/05/26 08:02:17;;;;;;;10.90;2.05;;;;;;;;;;4998341;28;20484;-75
2023/05/26 08:04:43;;;;;;;14.95;2.80;;;;;;;;;;5006538;28;20069;-73
2023/05/26 08:07:09;;;;;;;8.02;1.85;;;33.80;42.20;;;;;;5002575;28;20148;-71
2023/05/26 08:09:35;;;;;;;12.50;2.70;;;;;;;;;;5009180;28;20057;-73
2023/05/26 08:12:01;;;;;;;9.40;2.25;;;;;;;;;;5002832;28;20118;-76
2023/05/26 08:14:28;;;;;;;9.88;2.03;;;;;;;;;;4980861;28;20053;-73
2023/05/26 08:16:54;;;;;;;10.68;2.95;;;;;;;;;;4999734;28;20124;-72
2023/05/26 08:19:20;;;;;;;11.23;2.75;;;32.70;44.50;;;;;;5008890;28;20596;-74
2023/05/26 08:21:46;;;;;;;8.98;2.20;;;;;;;;;;5006824;28;20045;-74
2023/05/26 08:24:12;;;;;;;11.18;2.13;;;;;;;;;;5005873;28;20053;-71
2023/05/26 08:26:38;;;;;;;15.80;3.50;;;;;;;;;;5011441;28;20072;-76
2023/05/26 08:29:06;;;;;;;11.80;2.38;;;;;;;;;;4991012;28;20057;-76
2023/05/26 08:31:32;;;;;;;12.43;2.63;;;;;;;;;;5007979;28;20045;-73
2023/05/26 08:33:58;;;;;;;10.30;2.78;;;;;;;;;;5006910;28;20149;-76
2023/05/26 08:36:24;;;;;;;14.18;2.10;;;;;;;;;;5006768;28;20053;-74
2023/05/26 08:38:50;;;;;;;12.60;2.15;;;;;;;;;;4988181;28;20294;-74
2023/05/26 08:41:20;;;;;;;8.60;1.77;;;30.90;37.40;;;;;;5005508;28;20045;-76
2023/05/26 08:43:51;;;;;;;9.85;1.83;;;30.90;38.50;;;;;;4998971;28;20045;-75
2023/05/26 08:46:18;;;;;;;8.70;1.83;;;31.10;38.20;;;;;;5001366;28;20056;-76
2023/05/26 08:48:45;;;;;;;9.35;2.22;;;31.50;38.30;;;;;;5001637;28;20106;-78
2023/05/26 08:51:12;;;;;;;8.48;1.73;;;31.80;37.80;;;;;;5002291;28;20097;-75
2023/05/26 08:53:40;;;;;;;12.55;3.22;;;32.00;37.40;;;;;;5010042;28;20065;-75
2023/05/26 08:56:08;;;;;;;8.43;2.00;;;32.20;37.50;;;;;;4997903;28;20801;-73
2023/05/26 08:58:35;;;;;;;6.95;2.13;;;;;;;;;;5009656;28;20049;-80
2023/05/26 09:01:02;;;;;;;6.68;2.60;;;32.40;36.30;;;;;;4993847;28;20057;-74
2023/05/26 09:03:28;;;;;;;9.85;2.03;;;32.20;37.50;;;;;;5009213;28;20051;-72
2023/05/26 09:05:54;;;;;;;9.27;1.75;;;;;;;;;;5005996;28;20103;-74
2023/05/26 09:08:20;;;;;;;15.65;3.05;;;;;;;;;;4994327;28;20050;-75
2023/05/26 09:10:46;;;;;;;11.10;2.10;;;;;;;;;;5005431;28;20041;-75
2023/05/26 09:13:17;;;;;;;11.27;2.88;;;33.20;36.40;;;;;;4994328;28;20177;-73
2023/05/26 09:15:43;;;;;;;8.40;1.75;;;;;;;;;;5005063;28;20065;-75
2023/05/26 09:18:12;;;;;;;10.82;2.13;;;34.30;35.00;;;;;;4999199;28;20431;-77
2023/05/26 09:20:46;;;;;;;10.75;1.88;;;34.00;34.70;;;;;;5006706;28;20164;-76
2023/05/26 09:23:15;;;;;;;11.23;2.22;;;33.50;34.30;;;;;;5002949;28;20050;-74
2023/05/26 09:25:42;;;;;;;9.55;1.95;;;33.40;34.10;;;;;;4996891;28;20072;-74
2023/05/26 09:28:11;;;;;;;10.68;1.63;;;33.00;34.80;;;;;;4987213;28;20077;-74
2023/05/26 09:30:44;;;;;;;10.38;2.00;;;32.30;35.40;;;;;;5012717;28;20128;-77
2023/05/26 09:33:17;;;;;;;8.88;2.05;;;34.90;37.30;;;;;;5009173;28;20053;-74
2023/05/26 09:35:45;;;;;;;11.45;2.42;;;31.50;35.40;;;;;;4995634;28;20069;-74
2023/05/26 09:38:13;;;;;;;8.10;1.35;;;31.50;36.00;;;;;;4996834;28;20065;-70
2023/05/26 09:40:44;;;;;;;11.95;2.28;;;31.10;36.70;;;;;;5013994;28;20092;-76
2023/05/26 09:43:11;;;;;;;6.97;1.83;;;31.10;36.70;;;;;;4989394;28;20872;-75
2023/05/26 09:45:38;;;;;;;10.88;1.92;;;31.10;37.00;;;;;;5014166;28;20056;-73
2023/05/26 09:48:08;;;;;;;14.18;2.55;;;31.00;36.00;;;;;;5004287;28;20085;-77
2023/05/26 09:50:36;;;;;;;12.73;2.17;;;28.90;35.20;;;;;;4992467;28;20628;-77
2023/05/26 09:53:05;;;;;;;10.32;1.52;;;31.10;36.90;;;;;;5011139;28;20644;-75
2023/05/26 09:55:31;;;;;;;9.07;1.90;;;31.00;37.10;;;;;;4986561;28;20057;-72
2023/05/26 09:58:04;;;;;;;11.68;2.25;;;31.50;37.30;;;;;;5007339;28;20049;-73
2023/05/26 10:00:30;;;;;;;9.52;1.90;;;;;;;;;;5006783;28;20045;-72
2023/05/26 10:02:56;;;;;;;11.32;1.85;;;;;;;;;;5011825;28;20120;-73
2023/05/26 10:05:24;;;;;;;7.70;1.70;;;32.90;36.10;;;;;;5011655;28;20591;-75
2023/05/26 10:07:52;;;;;;;10.40;1.98;;;32.80;35.60;;;;;;4996913;28;20062;-75
2023/05/26 10:10:18;;;;;;;8.27;2.40;;;;;;;;;;5010510;28;20158;-74
2023/05/26 10:12:45;;;;;;;10.85;2.53;;;32.90;35.40;;;;;;4992251;28;20046;-76
2023/05/26 10:15:11;;;;;;;7.65;2.22;;;;;;;;;;5002400;28;20118;-75
2023/05/26 10:17:38;;;;;;;12.43;2.45;;;33.00;35.40;;;;;;4995899;28;20765;-73
2023/05/26 10:20:05;;;;;;;8.43;2.78;;;32.60;35.40;;;;;;4985284;28;20065;-73
2023/05/26 10:22:50;;;;;;;11.23;1.92;;;32.20;35.20;;;;;;4986603;28;20499;-72
2023/05/26 10:25:38;;;;;;;11.20;2.50;;;32.10;35.50;;;;;;5008940;28;20690;-74
2023/05/26 10:28:19;;;;;;;12.00;2.53;;;32.10;36.40;;;;;;4982436;28;20864;-73
2023/05/26 10:30:45;;;;;;;8.57;1.55;;;32.00;36.50;;;;;;4992290;28;20172;-72
2023/05/26 10:33:15;;;;;;;9.40;2.42;;;31.90;35.70;;;;;;5003908;28;20546;-71
2023/05/26 10:35:57;;;;;;;14.95;3.40;;;31.60;36.10;;;;;;5011924;28;20065;-73
2023/05/26 10:38:30;;;;;;;9.98;1.60;;;31.50;36.20;;;;;;5003556;28;20050;-75
2023/05/26 10:40:56;;;;;;;9.48;2.25;;;;;;;;;;5002977;28;20062;-74
2023/05/26 10:43:27;;;;;;;8.85;2.15;;;31.40;35.60;;;;;;5004303;28;20057;-73
2023/05/26 10:46:01;;;;;;;8.38;1.90;;;29.50;36.40;;;;;;5012247;28;21060;-74
2023/05/26 10:48:38;;;;;;;9.32;2.33;;;30.30;38.00;;;;;;5003940;28;20041;-71
2023/05/26 10:51:09;;;;;;;16.20;2.53;;;27.80;44.40;;;;;;5001117;28;20625;-73
2023/05/26 10:53:41;;;;;;;9.77;2.40;;;26.30;39.50;;;;;;4993059;28;20056;-74
2023/05/26 10:56:08;;;;;;;16.23;2.58;;;25.40;45.10;;;;;;5005993;28;20954;-72
2023/05/26 10:58:57;;;;;;;11.10;2.28;;;25.50;40.70;;;;;;5004158;28;20065;-73
2023/05/26 11:01:30;;;;;;;11.82;1.75;;;24.40;42.60;;;;;;5004409;28;20054;-76
2023/05/26 11:04:16;;;;;;;10.65;2.45;;;23.70;42.30;;;;;;5005924;28;20048;-73
2023/05/26 11:06:45;;;;;;;10.40;1.73;;;23.10;44.40;;;;;;5006646;28;20056;-73
2023/05/26 11:09:11;;;;;;;8.52;2.40;;;24.60;46.10;;;;;;5007174;28;20164;-71
2023/05/26 11:11:48;;;;;;;12.65;2.17;;;22.80;46.80;;;;;;5012484;28;20049;-73
2023/05/26 11:14:14;;;;;;;8.95;1.85;;;;;;;;;;5005880;28;20871;-72
2023/05/26 11:16:40;;;;;;;11.05;1.70;;;;;;;;;;4984661;28;20060;-73
2023/05/26 11:19:07;;;;;;;15.38;2.38;;;22.20;47.90;;;;;;5009005;28;20049;-72
2023/05/26 11:21:35;;;;;;;10.60;1.80;;;22.10;47.90;;;;;;5004378;28;20576;-74
2023/05/26 11:24:05;;;;;;;13.30;2.08;;;21.90;48.20;;;;;;5002587;28;20054;-70
2023/05/26 11:26:32;;;;;;;15.70;3.85;;;21.70;48.70;;;;;;5003554;28;20637;-69
2023/05/26 11:29:03;;;;;;;9.65;2.08;;;21.60;49.60;;;;;;4998808;28;20119;-72
2023/05/26 11:31:29;;;;;;;12.73;2.38;;;;;;;;;;4992265;28;20150;-72
2023/05/26 11:33:57;;;;;;;12.63;3.37;;;21.50;49.80;;;;;;4641072;28;10000502;-72
2023/05/26 11:36:24;;;;;;;8.45;2.17;;;;;;;;;;4987070;28;20390;-73
2023/05/26 11:38:58;;;;;;;10.85;1.95;;;20.80;50.40;;;;;;4994623;28;20433;-71
2023/05/26 11:41:28;;;;;;;10.77;2.00;;;20.70;50.90;;;;;;4992970;28;20054;-72
2023/05/26 11:43:56;;;;;;;9.27;1.98;;;20.60;51.60;;;;;;4995262;28;20121;-73
2023/05/26 11:46:23;;;;;;;10.65;1.55;;;20.30;58.30;;;;;;4994699;28;20854;-70
2023/05/26 11:48:50;;;;;;;9.27;1.92;;;;;;;;;;4979732;28;20424;-76
2023/05/26 11:51:19;;;;;;;10.75;2.55;;;20.50;52.90;;;;;;4979013;28;20049;-74
2023/05/26 11:53:46;;;;;;;11.80;2.22;;;;;;;;;;4997603;28;20050;-72
2023/05/26 11:56:13;;;;;;;12.55;2.80;;;20.50;52.90;;;;;;4993022;28;20057;-70
2023/05/26 11:58:45;;;;;;;10.63;1.65;;;20.50;53.20;;;;;;4995991;28;20840;-73
2023/05/26 12:01:12;;;;;;;11.52;2.40;;;;;;;;;;4998184;28;20056;-73
2023/05/26 12:03:44;;;;;;;11.68;3.63;;;20.30;53.10;;;;;;4999038;28;20059;-72
2023/05/26 12:06:15;;;;;;;10.70;2.20;;;20.10;52.90;;;;;;4995519;28;20536;-73
2023/05/26 12:09:20;;;;;;;11.05;2.60;;;20.10;53.00;;;;;;4985150;28;20064;-73
2023/05/26 12:11:48;;;;;;;12.02;2.38;;;17.40;51.70;;;;;;4987433;28;20062;-72
2023/05/26 12:14:14;;;;;;;12.68;2.83;;;19.90;53.90;;;;;;4994650;28;20079;-75
2023/05/26 12:16:50;;;;;;;11.73;2.13;;;20.10;54.10;;;;;;5002214;28;20120;-74
2023/05/26 12:19:19;;;;;;;12.18;2.42;;;19.80;53.80;;;;;;4987251;28;20041;-72
2023/05/26 12:21:50;;;;;;;13.15;2.88;;;19.90;53.40;;;;;;5000461;28;20148;-72
2023/05/26 12:24:33;;;;;;;14.73;2.70;;;19.70;58.00;;;;;;4983852;28;20075;-71
2023/05/26 12:27:11;;;;;;;16.20;3.40;;;20.20;54.30;;;;;;4983896;28;20136;-72
2023/05/26 12:29:46;;;;;;;13.55;3.17;;;20.20;54.00;;;;;;4985288;28;20094;-74
2023/05/26 12:32:12;;;;;;;14.13;2.97;;;;;;;;;;4991449;28;20645;-75
2023/05/26 12:34:40;;;;;;;12.10;2.25;;;20.20;53.90;;;;;;4996749;28;20817;-74
2023/05/26 12:37:07;;;;;;;13.25;2.65;;;;;;;;;;4990256;28;20064;-77
2023/05/26 12:39:33;;;;;;;11.73;2.67;;;;;;;;;;4992456;28;20060;-72
2023/05/26 12:42:01;;;;;;;14.77;2.72;;;;;;;;;;5002925;28;20458;-74
2023/05/26 12:44:27;;;;;;;15.23;3.10;;;;;;;;;;4997348;28;20076;-73
2023/05/26 12:46:53;;;;;;;13.77;2.90;;;;;;;;;;5006827;28;20042;-74
2023/05/26 12:49:20;;;;;;;10.25;2.33;;;;;;;;;;5006654;28;20077;-71
2023/05/26 12:51:47;;;;;;;10.23;1.95;;;;;;;;;;4999597;28;20081;-74
2023/05/26 12:54:13;;;;;;;11.80;3.28;;;;;;;;;;4979261;28;20137;-75
2023/05/26 12:56:40;;;;;;;10.32;2.33;;;;;;;;;;5009916;28;20796;-73
2023/05/26 12:59:06;;;;;;;13.05;2.28;;;;;;;;;;5010054;28;20049;-71
2023/05/26 13:01:32;;;;;;;11.68;2.20;;;;;;;;;;4993643;28;20045;-72
2023/05/26 13:04:00;;;;;;;14.57;2.33;;;;;;;;;;4982383;28;20046;-73
2023/05/26 13:06:26;;;;;;;12.00;2.25;;;;;;;;;;5008840;28;20049;-74
2023/05/26 13:08:52;;;;;;;8.85;1.92;;;;;;;;;;5010248;28;20057;-71
2023/05/26 13:11:18;;;;;;;11.30;1.75;;;;;;;;;;5009806;28;20053;-75
2023/05/26 13:13:45;;;;;;;9.65;1.95;;;;;;;;;;5009996;28;20091;-73
2023/05/26 13:16:12;;;;;;;12.27;1.60;;;19.70;55.50;;;;;;5009799;28;20663;-72
2023/05/26 13:18:39;;;;;;;10.27;1.85;;;;;;;;;;4993765;28;20456;-73
2023/05/26 13:21:08;;;;;;;11.82;2.83;;;19.60;55.20;;;;;;5010471;28;20156;-72
2023/05/26 13:23:36;;;;;;;12.40;2.00;;;;;;;;;;4994339;28;20084;-74
2023/05/26 13:26:06;;;;;;;12.02;2.55;;;;;;;;;;4994372;28;20561;-71
2023/05/26 13:28:33;;;;;;;10.65;2.22;;;;;;;;;;4993746;28;20060;-74
2023/05/26 13:31:00;;;;;;;16.55;2.95;;;;;;;;;;5010421;28;20053;-74
2023/05/26 13:33:26;;;;;;;10.85;1.98;;;;;;;;;;5010579;28;20172;-74
2023/05/26 13:35:52;;;;;;;11.68;1.92;;;;;;;;;;5003235;28;20053;-70
2023/05/26 13:38:18;;;;;;;9.35;2.00;;;19.20;55.80;;;;;;4991968;28;20041;-72
2023/05/26 13:40:44;;;;;;;12.15;2.03;;;;;;;;;;5010342;28;20064;-72
2023/05/26 13:43:10;;;;;;;11.85;2.55;;;;;;;;;;4994094;28;20077;-76
2023/05/26 13:45:36;;;;;;;13.20;2.22;;;;;;;;;;5000779;28;20413;-74
2023/05/26 13:48:03;;;;;;;14.73;2.35;;;19.90;56.40;;;;;;5003751;28;20050;-73
2023/05/26 13:50:29;;;;;;;11.05;2.13;;;;;;;;;;5002811;28;20998;-75
2023/05/26 13:52:55;;;;;;;11.25;2.53;;;;;;;;;;4988267;28;20300;-75
2023/05/26 13:55:22;;;;;;;10.20;2.13;;;;;;;;;;4993403;28;20400;-73